createdAt,value
2022-12-25T00:00:21.090Z,97981.84
2022-12-25T00:05:23.300Z,97967.88
2022-12-25T00:10:25.993Z,97958.09
2022-12-25T00:15:27.960Z,97951.72
2022-12-25T00:20:29.594Z,97946.38
2022-12-25T00:25:31.243Z,97955.16
2022-12-25T00:30:32.921Z,97957.41
2022-12-25T00:35:34.522Z,97948.09
2022-12-25T00:40:43.015Z,97950.69
2022-12-25T00:45:44.627Z,97941.00
2022-12-25T00:50:46.732Z,97932.38
2022-12-25T00:55:56.666Z,97930.66
2022-12-25T01:00:58.845Z,97931.66
2022-12-25T01:06:03.189Z,97942.69
2022-12-25T01:11:07.609Z,97938.56
2022-12-25T01:16:11.096Z,97938.38
2022-12-25T01:21:20.968Z,97949.78
2022-12-25T01:26:26.208Z,97955.34
2022-12-25T01:31:27.955Z,97963.13
2022-12-25T01:36:29.617Z,97962.28
2022-12-25T01:41:31.249Z,97982.88
2022-12-25T01:46:33.641Z,97988.41
2022-12-25T01:51:41.812Z,97993.56
2022-12-25T01:56:45.289Z,97979.38
2022-12-25T02:01:47.674Z,97985.38
2022-12-25T02:06:51.773Z,97989.56
2022-12-25T02:11:59.231Z,97994.19
2022-12-25T02:17:01.904Z,97995.84
2022-12-25T02:22:21.222Z,97982.66
2022-12-25T02:27:45.533Z,97987.19
2022-12-25T02:33:18.885Z,97986.19
2022-12-25T02:38:27.098Z,97986.97
2022-12-25T02:43:52.614Z,97989.16
2022-12-25T02:49:20.186Z,97989.03
2022-12-25T02:54:47.535Z,98005.50
2022-12-25T03:00:09.609Z,97998.03
2022-12-25T03:05:33.460Z,97985.88
2022-12-25T03:10:56.808Z,97972.19
2022-12-25T03:16:18.760Z,97971.25
2022-12-25T03:21:39.604Z,97981.06
2022-12-25T03:26:56.410Z,97979.63
2022-12-25T03:32:24.309Z,97994.34
2022-12-25T03:37:37.700Z,98003.84
2022-12-25T03:43:04.355Z,97995.00
2022-12-25T03:48:28.383Z,97992.38
2022-12-25T03:53:56.733Z,97996.53
2022-12-25T03:59:23.228Z,97988.59
2022-12-25T04:04:43.983Z,97993.44
2022-12-25T04:10:04.092Z,97992.91
2022-12-25T04:15:24.687Z,97991.06
2022-12-25T04:20:44.967Z,97980.44
2022-12-25T04:26:05.362Z,97982.03
2022-12-25T04:31:25.653Z,97998.97
2022-12-25T04:36:27.453Z,98006.69
2022-12-25T04:41:29.229Z,98006.13
2022-12-25T04:46:31.089Z,97994.50
2022-12-25T04:51:32.960Z,98000.91
2022-12-25T04:56:38.489Z,98002.91
2022-12-25T05:01:43.700Z,98015.84
2022-12-25T05:06:45.528Z,98012.28
2022-12-25T05:11:47.634Z,98011.94
2022-12-25T05:16:49.422Z,98010.19
2022-12-25T05:21:51.200Z,98013.03
2022-12-25T05:26:52.982Z,97999.78
2022-12-25T05:31:54.784Z,98003.53
2022-12-25T05:36:56.776Z,97992.78
2022-12-25T05:41:58.639Z,97992.88
2022-12-25T05:47:00.510Z,97990.31
2022-12-25T05:52:02.340Z,97986.00
2022-12-25T05:57:04.344Z,97967.81
2022-12-25T06:02:06.295Z,97967.81
2022-12-25T06:07:08.231Z,97966.31
2022-12-25T06:12:10.058Z,97950.44
2022-12-25T06:17:11.834Z,97950.09
2022-12-25T06:22:13.634Z,97953.13
2022-12-25T06:27:15.722Z,97956.97
2022-12-25T06:32:17.606Z,97957.91
2022-12-25T06:37:19.833Z,97955.47
2022-12-25T06:42:21.653Z,97967.25
2022-12-25T06:47:23.445Z,97968.16
2022-12-25T06:52:25.389Z,97975.94
2022-12-25T06:57:27.183Z,97967.22
2022-12-25T07:02:29.336Z,97971.47
2022-12-25T07:07:31.217Z,97972.59
2022-12-25T07:12:33.002Z,97968.75
2022-12-25T07:17:35.927Z,97990.25
2022-12-25T07:22:37.758Z,97984.47
2022-12-25T07:27:39.557Z,98002.34
2022-12-25T07:32:44.341Z,98008.69
2022-12-25T07:37:50.217Z,98004.44
2022-12-25T07:42:52.075Z,98019.38
2022-12-25T07:47:55.214Z,98016.31
2022-12-25T07:52:57.375Z,98025.66
2022-12-25T07:57:59.186Z,98008.97
2022-12-25T08:03:01.140Z,98018.44
2022-12-25T08:08:03.177Z,98020.16
2022-12-25T08:13:10.781Z,98008.13
2022-12-25T08:18:15.903Z,97995.50
2022-12-25T08:23:18.506Z,98000.19
2022-12-25T08:28:20.280Z,97993.16
2022-12-25T08:33:22.114Z,97973.66
2022-12-25T08:38:23.945Z,97979.69
2022-12-25T08:43:25.752Z,97980.34
2022-12-25T08:48:27.643Z,97974.03
2022-12-25T08:53:29.490Z,97959.25
2022-12-25T08:58:31.347Z,97964.34
2022-12-25T09:03:33.769Z,97962.28
2022-12-25T09:08:36.217Z,97954.81
2022-12-25T09:13:38.740Z,97953.00
2022-12-25T09:18:41.108Z,97960.84
2022-12-25T09:23:43.576Z,97963.63
2022-12-25T09:28:51.376Z,97950.88
2022-12-25T09:33:56.874Z,97951.28
2022-12-25T09:38:58.676Z,97952.47
2022-12-25T09:44:11.403Z,97953.22
2022-12-25T09:49:19.846Z,97925.63
2022-12-25T09:54:33.710Z,97904.97
2022-12-25T09:59:35.843Z,97917.66
2022-12-25T10:04:59.573Z,97921.03
2022-12-25T10:10:26.670Z,97934.97
2022-12-25T10:15:39.282Z,97912.94
2022-12-25T10:20:57.497Z,97915.03
2022-12-25T10:25:59.396Z,97909.81
2022-12-25T10:31:15.809Z,97928.19
2022-12-25T10:36:21.108Z,97907.00
2022-12-25T10:41:34.365Z,97900.28
2022-12-25T10:46:36.319Z,97877.53
2022-12-25T10:51:39.689Z,97879.06
2022-12-25T10:56:51.916Z,97887.75
2022-12-25T11:01:56.100Z,97879.75
2022-12-25T11:07:15.170Z,97879.09
2022-12-25T11:12:20.152Z,97852.81
2022-12-25T11:17:24.454Z,97833.31
2022-12-25T11:22:28.940Z,97843.59
2022-12-25T11:27:32.628Z,97817.03
2022-12-25T11:32:43.603Z,97817.16
2022-12-25T11:37:48.658Z,97810.94
2022-12-25T11:43:02.541Z,97808.72
2022-12-25T11:48:17.141Z,97810.34
2022-12-25T11:53:35.130Z,97780.47
2022-12-25T11:59:12.464Z,97785.38
2022-12-25T12:04:38.558Z,97787.47
2022-12-25T12:10:02.202Z,97765.53
2022-12-25T12:15:09.307Z,97757.53
2022-12-25T12:20:29.235Z,97749.91
2022-12-25T12:25:31.413Z,97723.66
2022-12-25T12:30:35.655Z,97717.41
2022-12-25T12:35:40.028Z,97715.09
2022-12-25T12:40:51.632Z,97705.78
2022-12-25T12:46:02.195Z,97711.84
2022-12-25T12:51:26.528Z,97733.41
2022-12-25T12:56:28.623Z,97742.19
2022-12-25T13:01:48.122Z,97763.22
2022-12-25T13:07:32.367Z,97749.47
2022-12-25T13:12:34.496Z,97742.69
2022-12-25T13:17:36.516Z,97736.97
2022-12-25T13:22:38.409Z,97733.00
2022-12-25T13:27:40.229Z,97719.38
2022-12-25T13:32:43.623Z,97736.22
2022-12-25T13:37:46.051Z,97732.78
2022-12-25T13:42:50.269Z,97703.50
2022-12-25T13:47:55.524Z,97701.00
2022-12-25T13:53:13.031Z,97690.28
2022-12-25T13:58:24.787Z,97673.03
2022-12-25T14:03:30.823Z,97646.56
2022-12-25T14:08:35.260Z,97652.56
2022-12-25T14:13:41.804Z,97636.75
2022-12-25T14:18:55.254Z,97638.16
2022-12-25T14:23:57.510Z,97625.69
2022-12-25T14:29:05.425Z,97632.72
2022-12-25T14:34:21.646Z,97644.84
2022-12-25T14:39:30.038Z,97650.44
2022-12-25T14:44:34.302Z,97648.41
2022-12-25T14:49:36.219Z,97644.50
2022-12-25T14:54:38.096Z,97639.28
2022-12-25T14:59:39.906Z,97626.63
2022-12-25T15:04:44.164Z,97630.22
2022-12-25T15:09:45.974Z,97637.22
2022-12-25T15:14:48.260Z,97617.16
2022-12-25T15:19:50.608Z,97616.97
2022-12-25T15:24:57.272Z,97612.88
2022-12-25T15:30:10.935Z,97607.78
2022-12-25T15:35:19.592Z,97583.03
2022-12-25T15:40:21.744Z,97590.34
2022-12-25T15:45:27.230Z,97593.38
2022-12-25T15:50:29.448Z,97579.00
2022-12-25T15:55:31.312Z,97587.88
2022-12-25T16:00:33.275Z,97590.47
2022-12-25T16:05:35.477Z,97574.88
2022-12-25T16:10:39.187Z,97565.78
2022-12-25T16:15:42.358Z,97554.66
2022-12-25T16:20:44.320Z,97553.84
2022-12-25T16:25:46.233Z,97552.59
2022-12-25T16:30:48.274Z,97548.06
2022-12-25T16:35:52.050Z,97534.69
2022-12-25T16:40:59.183Z,97537.16
2022-12-25T16:46:00.919Z,97534.06
2022-12-25T16:51:12.109Z,97535.53
2022-12-25T16:56:20.455Z,97532.50
2022-12-25T17:01:22.971Z,97533.28
2022-12-25T17:06:26.913Z,97513.72
2022-12-25T17:11:31.857Z,97507.25
2022-12-25T17:16:35.782Z,97483.63
2022-12-25T17:21:38.411Z,97499.28
2022-12-25T17:26:41.623Z,97481.28
2022-12-25T17:31:43.331Z,97482.75
2022-12-25T17:36:44.960Z,97480.50
2022-12-25T17:41:50.053Z,97463.72
2022-12-25T17:46:51.760Z,97478.69
2022-12-25T17:51:54.177Z,97468.31
2022-12-25T17:56:55.778Z,97456.31
2022-12-25T18:01:57.453Z,97466.72
2022-12-25T18:06:59.181Z,97469.97
2022-12-25T18:12:00.804Z,97460.28
2022-12-25T18:17:02.456Z,97460.22
2022-12-25T18:22:04.126Z,97459.09
2022-12-25T18:27:05.730Z,97459.94
2022-12-25T18:32:07.364Z,97471.66
2022-12-25T18:37:08.986Z,97464.84
2022-12-25T18:42:29.117Z,97476.88
2022-12-25T18:47:30.952Z,97486.59
2022-12-25T18:52:49.608Z,97485.91
2022-12-25T18:57:52.928Z,97473.16
2022-12-25T19:02:59.318Z,97483.59
2022-12-25T19:08:01.189Z,97469.19
2022-12-25T19:13:02.874Z,97473.50
2022-12-25T19:18:04.621Z,97463.69
2022-12-25T19:23:07.430Z,97466.19
2022-12-25T19:28:09.035Z,97468.06
2022-12-25T19:33:17.237Z,97469.94
2022-12-25T19:38:20.234Z,97468.78
2022-12-25T19:43:21.899Z,97464.72
2022-12-25T19:48:23.826Z,97445.53
2022-12-25T19:53:26.028Z,97454.34
2022-12-25T19:58:27.672Z,97446.69
2022-12-25T20:03:29.371Z,97441.09
2022-12-25T20:08:31.103Z,97457.31
2022-12-25T20:13:32.722Z,97455.09
2022-12-25T20:18:34.913Z,97447.88
2022-12-25T20:23:37.189Z,97442.34
2022-12-25T20:28:40.250Z,97445.53
2022-12-25T20:33:42.260Z,97453.28
2022-12-25T20:38:43.857Z,97461.50
2022-12-25T20:43:46.047Z,97457.88
2022-12-25T20:48:47.656Z,97459.72
2022-12-25T20:53:49.403Z,97443.16
2022-12-25T20:58:58.750Z,97451.59
2022-12-25T21:04:03.704Z,97445.22
2022-12-25T21:09:05.825Z,97446.00
2022-12-25T21:14:07.732Z,97448.94
2022-12-25T21:19:09.304Z,97445.84
2022-12-25T21:24:11.201Z,97458.16
2022-12-25T21:29:12.946Z,97458.09
2022-12-25T21:34:14.536Z,97476.94
2022-12-25T21:39:16.367Z,97473.28
2022-12-25T21:44:17.970Z,97472.59
2022-12-25T21:49:39.646Z,97468.94
2022-12-25T21:54:41.347Z,97461.75
2022-12-25T21:59:42.990Z,97456.31
2022-12-25T22:04:44.583Z,97476.03
2022-12-25T22:09:48.492Z,97484.50
2022-12-25T22:14:54.965Z,97466.34
2022-12-25T22:19:57.492Z,97460.53
2022-12-25T22:25:01.889Z,97456.59
2022-12-25T22:30:09.689Z,97453.03
2022-12-25T22:35:12.474Z,97444.28
2022-12-25T22:40:17.970Z,97431.84
2022-12-25T22:45:19.915Z,97434.44
2022-12-25T22:50:21.745Z,97442.66
2022-12-25T22:55:23.597Z,97454.00
2022-12-25T23:00:25.377Z,97443.94
2022-12-25T23:05:27.190Z,97443.34
2022-12-25T23:10:29.186Z,97464.31
2022-12-25T23:15:31.659Z,97467.72
2022-12-25T23:20:52.111Z,97459.25
2022-12-25T23:26:09.085Z,97455.84
2022-12-25T23:31:11.009Z,97447.59
2022-12-25T23:36:12.965Z,97426.44
2022-12-25T23:41:14.905Z,97438.81
2022-12-25T23:46:17.185Z,97432.06
2022-12-25T23:51:19.060Z,97426.63
2022-12-25T23:56:21.232Z,97415.72
